Terminal Aerodrome Forecast
Issued by NWS

Home | Current Version | Previous Version | Text Only | Print | Product List | Glossary On
Versions: 1 2 3 4 5 6 7 8 9 10 11 12 13 14 15 16 17 18 19 20 21 22 23
000
FTAK31 PAFA 250537
TAFAQT
TAF
PAQT 250537Z 2506/2606 04009KT P6SM SCT200
     FM250800 06008KT P6SM SCT010
      TEMPO 2509/2511 BKN010
     FM251200 07007KT 4SM BR OVC008
     FM251900 12006KT P6SM BKN020=

USA.gov is the U.S. government's official web portal to all federal, state and local government web resources and services.